Terminal Aerodrome Forecast
Issued by NWS Tampa Bay Area, FL

Home | Current Version | Previous Version | Text Only | Print | Product List | Glossary On
Versions: 1 2 3 4 5 6 7 8 9 10 11 12 13 14 15 16
000
FTUS42 KTBW 211124
TAFSRQ
TAF
KSRQ 211124Z 2112/2212 11010KT P6SM SCT010
     FM211400 12012KT P6SM SCT025
     FM211700 16010KT P6SM SCT050
     FM220200 09006KT P6SM FEW025=

USA.gov is the U.S. government's official web portal to all federal, state and local government web resources and services.